createdAt,value
2022-08-23T00:00:14.818Z,57.00
2022-08-23T00:02:46.318Z,56.97
2022-08-23T00:05:14.679Z,57.07
2022-08-23T00:07:45.626Z,57.03
2022-08-23T00:10:16.788Z,56.96
2022-08-23T00:12:47.568Z,56.94
2022-08-23T00:15:18.444Z,57.00
2022-08-23T00:17:47.919Z,57.00
2022-08-23T00:20:19.761Z,56.95
2022-08-23T00:22:48.214Z,57.00
2022-08-23T00:25:16.967Z,56.98
2022-08-23T00:27:46.838Z,56.98
2022-08-23T00:30:16.871Z,56.93
2022-08-23T00:32:45.509Z,56.87
2022-08-23T00:35:26.253Z,56.79
2022-08-23T00:38:29.870Z,56.77
2022-08-23T00:40:47.563Z,56.61
2022-08-23T00:43:36.303Z,56.52
2022-08-23T00:46:29.881Z,56.50
2022-08-23T00:48:59.177Z,56.57
2022-08-23T00:51:31.728Z,56.68
2022-08-23T00:54:12.353Z,56.78
2022-08-23T00:56:41.011Z,56.83
2022-08-23T00:59:10.966Z,56.81
2022-08-23T01:01:39.480Z,56.81
2022-08-23T01:04:07.797Z,56.84
2022-08-23T01:06:40.806Z,56.89
2022-08-23T01:09:13.200Z,56.77
2022-08-23T01:11:47.015Z,56.85
2022-08-23T01:14:20.906Z,56.88
2022-08-23T01:16:53.741Z,57.27
2022-08-23T01:19:28.220Z,57.29
2022-08-23T01:22:05.910Z,57.35
2022-08-23T01:25:06.811Z,57.36
2022-08-23T01:27:25.582Z,57.60
2022-08-23T01:29:53.844Z,57.56
2022-08-23T01:32:22.378Z,57.77
2022-08-23T01:34:51.529Z,57.82
2022-08-23T01:37:22.439Z,57.79
2022-08-23T01:39:55.430Z,57.59
2022-08-23T01:42:24.662Z,57.67
2022-08-23T01:44:53.054Z,57.64
2022-08-23T01:47:21.413Z,57.67
2022-08-23T01:49:49.792Z,57.76
2022-08-23T01:52:19.680Z,57.96
2022-08-23T01:54:47.987Z,58.03
2022-08-23T01:57:17.829Z,58.09
2022-08-23T01:59:46.246Z,58.09
2022-08-23T02:02:15.102Z,58.08
2022-08-23T02:04:43.745Z,58.06
2022-08-23T02:07:12.111Z,58.03
2022-08-23T02:09:41.624Z,58.07
2022-08-23T02:12:11.643Z,58.03
2022-08-23T02:14:43.695Z,58.03
2022-08-23T02:17:19.974Z,58.04
2022-08-23T02:19:48.551Z,58.03
2022-08-23T02:22:16.881Z,57.96
2022-08-23T02:24:48.217Z,57.95
2022-08-23T02:27:18.056Z,57.86
2022-08-23T02:29:49.843Z,57.82
2022-08-23T02:32:21.383Z,57.78
2022-08-23T02:34:59.882Z,57.76
2022-08-23T02:37:34.709Z,57.67
2022-08-23T02:40:05.555Z,57.57
2022-08-23T02:42:34.096Z,57.54
2022-08-23T02:45:05.442Z,57.51
2022-08-23T02:47:36.811Z,57.44
2022-08-23T02:50:16.038Z,57.28
2022-08-23T02:52:45.750Z,57.42
2022-08-23T02:55:14.669Z,57.35
2022-08-23T02:57:43.067Z,57.39
2022-08-23T03:00:16.425Z,57.32
2022-08-23T03:02:45.516Z,57.37
2022-08-23T03:05:15.743Z,57.49
2022-08-23T03:07:44.317Z,57.42
2022-08-23T03:10:13.591Z,57.42
2022-08-23T03:12:48.194Z,57.44
2022-08-23T03:15:18.082Z,57.35
2022-08-23T03:17:46.390Z,57.32
2022-08-23T03:20:14.831Z,57.25
2022-08-23T03:22:48.418Z,57.23
2022-08-23T03:25:26.058Z,57.15
2022-08-23T03:28:13.039Z,57.10
2022-08-23T03:30:46.999Z,57.03
2022-08-23T03:33:17.067Z,57.03
2022-08-23T03:35:47.484Z,57.06
2022-08-23T03:38:17.285Z,57.06
2022-08-23T03:40:46.359Z,57.07
2022-08-23T03:43:15.275Z,57.05
2022-08-23T03:45:43.526Z,57.00
2022-08-23T03:48:13.991Z,57.03
2022-08-23T03:50:42.467Z,57.04
2022-08-23T03:53:12.055Z,57.06
2022-08-23T03:55:43.390Z,57.05
2022-08-23T03:58:16.431Z,57.00
2022-08-23T04:00:45.125Z,56.94
2022-08-23T04:03:14.851Z,56.88
2022-08-23T04:06:16.029Z,57.01
2022-08-23T04:08:46.314Z,57.00
2022-08-23T04:11:15.092Z,57.04
2022-08-23T04:13:53.556Z,57.01
2022-08-23T04:16:22.005Z,57.00
2022-08-23T04:18:51.948Z,57.00
2022-08-23T04:21:23.951Z,56.95
2022-08-23T04:23:54.132Z,56.88
2022-08-23T04:26:23.652Z,56.90
2022-08-23T04:28:57.032Z,56.93
2022-08-23T04:31:26.649Z,56.87
2022-08-23T04:33:58.036Z,56.96
2022-08-23T04:36:34.643Z,56.98
2022-08-23T04:39:03.872Z,56.92
2022-08-23T04:41:49.852Z,56.90
2022-08-23T04:44:18.329Z,56.97
2022-08-23T04:46:48.743Z,56.85
2022-08-23T04:49:23.023Z,56.72
2022-08-23T04:51:54.254Z,56.81
2022-08-23T04:54:24.076Z,56.86
2022-08-23T04:57:21.354Z,56.85
2022-08-23T04:59:50.625Z,56.71
2022-08-23T05:02:18.947Z,56.61
2022-08-23T05:04:48.892Z,56.56
2022-08-23T05:07:17.472Z,56.67
2022-08-23T05:09:45.977Z,56.47
2022-08-23T05:12:14.894Z,56.56
2022-08-23T05:14:44.336Z,56.63
2022-08-23T05:17:16.889Z,56.58
2022-08-23T05:19:47.111Z,56.47
2022-08-23T05:22:18.125Z,56.42
2022-08-23T05:25:15.965Z,56.51
2022-08-23T05:27:44.848Z,56.19
2022-08-23T05:30:15.138Z,56.02
2022-08-23T05:32:44.455Z,56.05
2022-08-23T05:35:14.321Z,55.72
2022-08-23T05:37:47.436Z,55.64
2022-08-23T05:40:16.973Z,55.80
2022-08-23T05:42:59.635Z,55.51
2022-08-23T05:45:28.343Z,55.35
2022-08-23T05:47:57.468Z,55.39
2022-08-23T05:50:38.260Z,55.13
2022-08-23T05:53:10.723Z,54.95
2022-08-23T05:55:39.608Z,54.65
2022-08-23T05:58:24.226Z,54.18
2022-08-23T06:00:52.774Z,54.32
2022-08-23T06:03:21.193Z,53.92
2022-08-23T06:05:49.876Z,53.82
2022-08-23T06:08:19.557Z,53.70
2022-08-23T06:10:47.947Z,53.33
2022-08-23T06:13:24.253Z,53.30
2022-08-23T06:15:52.628Z,52.97
2022-08-23T06:18:21.074Z,52.90
2022-08-23T06:20:59.430Z,52.77
2022-08-23T06:23:42.593Z,52.59
2022-08-23T06:26:12.396Z,52.21
2022-08-23T06:28:50.889Z,52.26
2022-08-23T06:31:41.968Z,51.54
2022-08-23T06:34:18.362Z,50.21
2022-08-23T06:37:05.228Z,50.27
2022-08-23T06:39:53.917Z,50.34
2022-08-23T06:42:45.460Z,50.95
2022-08-23T06:45:17.512Z,49.75
2022-08-23T06:47:49.691Z,49.33
2022-08-23T06:50:18.380Z,49.36
2022-08-23T06:53:06.935Z,49.10
2022-08-23T06:56:03.583Z,49.74
2022-08-23T06:58:42.367Z,49.48
2022-08-23T07:01:46.531Z,48.79
2022-08-23T07:04:30.007Z,48.92
2022-08-23T07:07:08.298Z,48.42
2022-08-23T07:09:39.323Z,47.36
2022-08-23T07:12:11.110Z,47.79
2022-08-23T07:14:43.199Z,48.91
2022-08-23T07:17:12.608Z,47.28
2022-08-23T07:19:44.190Z,46.52
2022-08-23T07:22:15.686Z,46.98
2022-08-23T07:24:44.445Z,45.21
2022-08-23T07:27:14.152Z,45.28
2022-08-23T07:29:53.770Z,44.06
2022-08-23T07:32:22.096Z,42.59
2022-08-23T07:34:52.272Z,42.93
2022-08-23T07:37:20.964Z,42.29
2022-08-23T07:39:49.328Z,43.14
2022-08-23T07:42:23.456Z,42.27
2022-08-23T07:44:57.042Z,42.81
2022-08-23T07:47:29.718Z,42.10
2022-08-23T07:50:00.351Z,41.81
2022-08-23T07:52:29.832Z,40.48
2022-08-23T07:54:59.014Z,40.61
2022-08-23T07:57:37.810Z,40.13
2022-08-23T08:00:28.880Z,39.41
2022-08-23T08:03:13.292Z,39.64
2022-08-23T08:06:01.084Z,39.82
2022-08-23T08:08:29.542Z,39.70
2022-08-23T08:10:58.379Z,39.59
2022-08-23T08:13:28.243Z,38.61
2022-08-23T08:15:57.815Z,37.86
2022-08-23T08:18:29.021Z,38.45
2022-08-23T08:21:16.709Z,39.43
2022-08-23T08:24:08.426Z,38.07
2022-08-23T08:26:46.071Z,38.24
2022-08-23T08:29:16.638Z,37.75
2022-08-23T08:31:51.313Z,37.20
2022-08-23T08:34:22.047Z,36.62
2022-08-23T08:36:53.801Z,36.47
2022-08-23T08:39:27.356Z,38.17
2022-08-23T08:42:10.070Z,37.67
2022-08-23T08:44:46.227Z,36.89
2022-08-23T08:47:23.234Z,36.12
2022-08-23T08:50:00.003Z,35.14
2022-08-23T08:52:32.261Z,34.33
2022-08-23T08:55:09.231Z,35.39
2022-08-23T08:57:41.210Z,35.37
2022-08-23T09:00:15.639Z,36.05
2022-08-23T09:02:46.177Z,35.60
2022-08-23T09:05:18.050Z,36.05
2022-08-23T09:07:58.595Z,34.44
2022-08-23T09:10:52.261Z,32.99
2022-08-23T09:13:46.015Z,33.30
2022-08-23T09:16:31.458Z,33.69
2022-08-23T09:19:02.640Z,33.21
2022-08-23T09:21:41.136Z,31.92
2022-08-23T09:24:10.178Z,31.87
2022-08-23T09:26:54.965Z,31.53
2022-08-23T09:29:27.077Z,32.25
2022-08-23T09:32:02.365Z,28.87
2022-08-23T09:34:43.602Z,30.16
2022-08-23T09:37:19.188Z,28.81
2022-08-23T09:39:51.648Z,30.06
2022-08-23T09:42:32.175Z,29.21
2022-08-23T09:45:01.357Z,28.13
2022-08-23T09:47:43.300Z,27.70
2022-08-23T09:50:25.278Z,28.58
2022-08-23T09:52:59.009Z,28.98
2022-08-23T09:55:32.912Z,28.51
2022-08-23T09:58:03.224Z,27.71
2022-08-23T10:00:35.052Z,27.55
2022-08-23T10:03:27.473Z,25.95
2022-08-23T10:06:03.281Z,26.30
2022-08-23T10:08:42.843Z,27.06
2022-08-23T10:11:20.170Z,25.49
2022-08-23T10:13:49.289Z,23.54
2022-08-23T10:16:30.718Z,25.60
2022-08-23T10:19:16.090Z,25.19
2022-08-23T10:21:52.562Z,24.18
2022-08-23T10:24:31.276Z,23.32
2022-08-23T10:27:29.240Z,24.02
2022-08-23T10:30:05.412Z,22.80
2022-08-23T10:32:56.401Z,23.70
2022-08-23T10:35:33.230Z,24.16
2022-08-23T10:38:33.836Z,25.52
2022-08-23T10:41:19.047Z,27.82
2022-08-23T10:43:55.258Z,26.59
2022-08-23T10:46:24.174Z,26.43
2022-08-23T10:48:56.394Z,26.00
2022-08-23T10:51:32.398Z,27.06
2022-08-23T10:54:06.416Z,26.94
2022-08-23T10:56:36.217Z,25.81
2022-08-23T10:59:10.601Z,27.18
2022-08-23T11:01:46.891Z,25.88
2022-08-23T11:04:25.090Z,24.95
2022-08-23T11:07:17.773Z,23.69
2022-08-23T11:09:53.753Z,22.16
2022-08-23T11:12:29.487Z,21.53
2022-08-23T11:15:25.949Z,23.34
2022-08-23T11:17:59.548Z,21.63
2022-08-23T11:20:59.747Z,19.19
2022-08-23T11:23:54.228Z,21.00
2022-08-23T11:27:06.360Z,20.64
2022-08-23T11:29:41.411Z,20.52
2022-08-23T11:32:46.533Z,21.44
2022-08-23T11:35:43.035Z,19.66
2022-08-23T11:38:13.318Z,19.05
2022-08-23T11:41:18.708Z,19.13
2022-08-23T11:43:49.464Z,18.66
2022-08-23T11:46:32.285Z,19.34
2022-08-23T11:49:40.102Z,19.78
2022-08-23T11:52:30.917Z,21.31
2022-08-23T11:55:42.395Z,19.43
2022-08-23T11:58:23.282Z,19.93
2022-08-23T12:00:59.571Z,18.67
2022-08-23T12:03:34.255Z,19.31
2022-08-23T12:06:13.269Z,18.78
2022-08-23T12:08:55.840Z,19.51
2022-08-23T12:11:26.246Z,17.92
2022-08-23T12:13:59.126Z,18.12
2022-08-23T12:16:38.460Z,17.21
2022-08-23T12:19:26.057Z,16.70
2022-08-23T12:21:56.179Z,17.38
2022-08-23T12:24:29.751Z,17.07
2022-08-23T12:27:12.881Z,16.83
2022-08-23T12:29:53.870Z,16.88
2022-08-23T12:32:31.166Z,17.97
2022-08-23T12:35:11.735Z,19.17
2022-08-23T12:37:46.341Z,18.86
2022-08-23T12:40:23.350Z,19.21
2022-08-23T12:42:51.641Z,18.02
2022-08-23T12:45:23.702Z,17.94
2022-08-23T12:47:57.934Z,18.13
2022-08-23T12:50:33.151Z,17.16
2022-08-23T12:53:04.206Z,16.68
2022-08-23T12:55:35.097Z,17.41
2022-08-23T12:58:04.310Z,17.10
2022-08-23T13:00:36.514Z,17.06
2022-08-23T13:03:08.479Z,17.32
2022-08-23T13:05:43.666Z,17.62
2022-08-23T13:08:16.608Z,18.37
2022-08-23T13:10:46.211Z,18.72
2022-08-23T13:13:16.246Z,18.47
2022-08-23T13:15:54.197Z,18.05
2022-08-23T13:18:28.340Z,19.62
2022-08-23T13:21:26.511Z,19.67
2022-08-23T13:23:57.678Z,19.34
2022-08-23T13:26:41.697Z,18.51
2022-08-23T13:29:13.481Z,19.02
2022-08-23T13:32:04.103Z,19.38
2022-08-23T13:34:37.002Z,20.54
2022-08-23T13:37:24.098Z,20.22
2022-08-23T13:39:55.963Z,18.59
2022-08-23T13:42:32.894Z,18.29
2022-08-23T13:45:09.326Z,19.62
2022-08-23T13:47:39.373Z,19.34
2022-08-23T13:50:16.255Z,19.05
2022-08-23T13:53:11.612Z,20.05
2022-08-23T13:55:35.616Z,21.60
2022-08-23T13:58:03.744Z,19.12
2022-08-23T14:00:31.747Z,19.60
2022-08-23T14:03:01.207Z,20.18
2022-08-23T14:05:29.487Z,19.95
2022-08-23T14:08:01.521Z,20.47
2022-08-23T14:10:29.672Z,19.38
2022-08-23T14:12:57.909Z,20.57
2022-08-23T14:18:15.358Z,19.78
2022-08-23T14:20:44.451Z,21.76
2022-08-23T14:23:14.192Z,21.08
2022-08-23T14:25:42.444Z,22.34
2022-08-23T14:28:10.483Z,21.74
2022-08-23T14:30:38.618Z,21.97
2022-08-23T14:33:06.837Z,21.18
2022-08-23T14:35:36.390Z,20.11
2022-08-23T14:38:05.267Z,20.49
2022-08-23T14:40:34.335Z,19.83
2022-08-23T14:43:02.634Z,20.41
2022-08-23T14:45:30.746Z,21.11
2022-08-23T14:47:58.845Z,21.45
2022-08-23T14:50:27.800Z,20.84
2022-08-23T14:52:58.371Z,20.63
2022-08-23T14:55:27.690Z,21.50
2022-08-23T14:57:55.693Z,20.89
2022-08-23T15:00:23.854Z,21.27
2022-08-23T15:02:51.921Z,22.31
2022-08-23T15:05:20.150Z,22.74
2022-08-23T15:07:48.555Z,24.08
2022-08-23T15:13:21.625Z,20.05
2022-08-23T15:15:54.735Z,19.86
2022-08-23T15:18:23.190Z,19.45
2022-08-23T15:20:52.163Z,20.75
2022-08-23T15:23:21.598Z,21.00
2022-08-23T15:25:52.065Z,23.28
2022-08-23T15:28:22.019Z,24.56
2022-08-23T15:30:51.530Z,22.71
2022-08-23T15:33:23.495Z,23.82
2022-08-23T15:35:55.741Z,24.96
2022-08-23T15:38:25.724Z,23.44
2022-08-23T15:40:55.734Z,25.32
2022-08-23T15:43:33.902Z,24.40
2022-08-23T15:46:06.454Z,23.76
2022-08-23T15:48:38.018Z,26.01
2022-08-23T15:51:07.244Z,26.20
2022-08-23T15:53:35.539Z,25.67
2022-08-23T15:56:10.517Z,26.66
2022-08-23T15:58:39.861Z,25.10
2022-08-23T16:01:08.299Z,27.67
2022-08-23T16:03:36.892Z,27.78
2022-08-23T16:06:05.874Z,27.52
2022-08-23T16:08:38.255Z,27.50
2022-08-23T16:11:12.170Z,27.68
2022-08-23T16:13:42.746Z,29.38
2022-08-23T16:16:17.130Z,29.84
2022-08-23T16:18:45.350Z,29.66
2022-08-23T16:21:14.027Z,30.38
2022-08-23T16:23:43.099Z,31.03
2022-08-23T16:26:16.414Z,31.56
2022-08-23T16:28:46.553Z,33.28
2022-08-23T16:31:15.388Z,32.89
2022-08-23T16:33:43.795Z,33.28
2022-08-23T16:36:12.254Z,32.79
2022-08-23T16:38:40.509Z,33.17
2022-08-23T16:41:08.698Z,33.13
2022-08-23T16:43:38.129Z,33.29
2022-08-23T16:46:06.491Z,34.06
2022-08-23T16:48:34.965Z,34.33
2022-08-23T16:51:03.102Z,34.46
2022-08-23T16:53:31.152Z,33.95
2022-08-23T16:55:59.201Z,34.66
2022-08-23T16:58:28.042Z,34.58
2022-08-23T17:00:57.565Z,35.08
2022-08-23T17:03:27.176Z,34.85
2022-08-23T17:05:55.314Z,35.36
2022-08-23T17:08:23.370Z,34.86
2022-08-23T17:10:51.688Z,34.95
2022-08-23T17:13:19.754Z,35.92
2022-08-23T17:15:47.813Z,35.89
2022-08-23T17:18:17.238Z,35.82
2022-08-23T17:20:45.633Z,36.13
2022-08-23T17:23:13.980Z,36.08
2022-08-23T17:25:44.470Z,36.82
2022-08-23T17:28:12.554Z,37.45
2022-08-23T17:30:40.733Z,37.79
2022-08-23T17:33:09.485Z,38.04
2022-08-23T17:35:39.153Z,38.33
2022-08-23T17:38:08.385Z,38.60
2022-08-23T17:40:40.143Z,39.20
2022-08-23T17:43:08.498Z,39.65
2022-08-23T17:45:42.087Z,39.90
2022-08-23T17:48:10.919Z,40.06
2022-08-23T17:50:41.373Z,40.49
2022-08-23T17:53:09.405Z,40.33
2022-08-23T17:55:38.251Z,40.60
2022-08-23T17:58:07.269Z,40.85
2022-08-23T18:00:37.984Z,40.81
2022-08-23T18:03:06.840Z,40.97
2022-08-23T18:05:42.959Z,41.21
2022-08-23T18:08:11.291Z,41.49
2022-08-23T18:10:39.625Z,41.65
2022-08-23T18:13:07.823Z,41.81
2022-08-23T18:15:36.034Z,41.78
2022-08-23T18:18:04.445Z,41.97
2022-08-23T18:20:32.707Z,41.78
2022-08-23T18:23:02.229Z,41.78
2022-08-23T18:25:30.808Z,42.16
2022-08-23T18:28:07.313Z,42.20
2022-08-23T18:30:39.510Z,42.28
2022-08-23T18:33:12.456Z,42.52
2022-08-23T18:35:41.315Z,42.52
2022-08-23T18:38:12.540Z,42.59
2022-08-23T18:40:46.239Z,42.53
2022-08-23T18:43:16.270Z,42.65
2022-08-23T18:45:45.932Z,42.68
2022-08-23T18:48:14.071Z,43.00
2022-08-23T18:50:43.008Z,43.37
2022-08-23T18:53:12.834Z,43.49
2022-08-23T18:55:41.202Z,44.16
2022-08-23T18:58:09.357Z,44.52
2022-08-23T19:00:38.994Z,44.88
2022-08-23T19:03:07.813Z,45.06
2022-08-23T19:05:41.772Z,45.22
2022-08-23T19:08:12.801Z,45.46
2022-08-23T19:10:42.544Z,45.26
2022-08-23T19:13:10.987Z,45.38
2022-08-23T19:15:40.558Z,45.48
2022-08-23T19:18:08.750Z,45.72
2022-08-23T19:20:38.042Z,45.60
2022-08-23T19:23:06.522Z,45.63
2022-08-23T19:25:38.601Z,45.56
2022-08-23T19:28:07.254Z,45.70
2022-08-23T19:30:35.677Z,45.80
2022-08-23T19:33:04.239Z,45.61
2022-08-23T19:35:32.623Z,45.80
2022-08-23T19:38:00.659Z,45.78
2022-08-23T19:40:28.800Z,45.91
2022-08-23T19:42:59.825Z,46.15
2022-08-23T19:45:28.074Z,46.43
2022-08-23T19:48:00.578Z,46.47
2022-08-23T19:50:29.526Z,46.46
2022-08-23T19:52:57.841Z,46.75
2022-08-23T19:55:27.351Z,46.80
2022-08-23T19:57:55.774Z,46.97
2022-08-23T20:00:27.107Z,47.03
2022-08-23T20:02:55.463Z,47.34
2022-08-23T20:05:23.954Z,47.52
2022-08-23T20:07:52.211Z,47.53
2022-08-23T20:10:20.767Z,47.88
2022-08-23T20:12:48.944Z,48.05
2022-08-23T20:15:16.971Z,48.42
2022-08-23T20:17:46.398Z,48.34
2022-08-23T20:20:14.857Z,48.32
2022-08-23T20:23:00.374Z,48.74
2022-08-23T20:25:29.202Z,48.72
2022-08-23T20:27:57.321Z,48.74
2022-08-23T20:30:25.522Z,48.76
2022-08-23T20:32:55.009Z,48.66
2022-08-23T20:35:23.210Z,48.58
2022-08-23T20:37:51.783Z,48.31
2022-08-23T20:40:20.539Z,47.54
2022-08-23T20:42:48.698Z,47.02
2022-08-23T20:45:16.744Z,46.44
2022-08-23T20:47:44.916Z,45.26
2022-08-23T20:50:14.488Z,44.41
2022-08-23T20:52:43.029Z,44.16
2022-08-23T20:55:12.334Z,43.06
2022-08-23T20:57:40.414Z,42.68
2022-08-23T21:00:09.757Z,42.25
2022-08-23T21:02:37.805Z,41.82
2022-08-23T21:05:06.999Z,41.81
2022-08-23T21:07:36.893Z,40.89
2022-08-23T21:10:05.977Z,41.08
2022-08-23T21:12:35.056Z,40.84
2022-08-23T21:15:03.164Z,40.48
2022-08-23T21:17:31.185Z,40.51
2022-08-23T21:19:59.740Z,40.38
2022-08-23T21:22:32.251Z,40.30
2022-08-23T21:25:02.197Z,40.11
2022-08-23T21:27:31.227Z,40.23
2022-08-23T21:29:59.250Z,40.26
2022-08-23T21:32:27.482Z,40.02
2022-08-23T21:34:56.134Z,39.49
2022-08-23T21:37:24.317Z,39.46
2022-08-23T21:39:52.943Z,39.21
2022-08-23T21:42:23.825Z,39.59
2022-08-23T21:44:53.653Z,39.56
2022-08-23T21:47:21.708Z,39.80
2022-08-23T21:49:49.818Z,39.86
2022-08-23T21:52:17.854Z,39.67
2022-08-23T21:54:45.961Z,39.81
2022-08-23T21:57:14.060Z,39.68
2022-08-23T21:59:43.770Z,39.78
2022-08-23T22:02:11.985Z,40.18
2022-08-23T22:04:40.033Z,40.38
2022-08-23T22:07:08.113Z,39.81
2022-08-23T22:09:36.365Z,39.94
2022-08-23T22:12:05.438Z,39.76
2022-08-23T22:14:34.548Z,39.59
2022-08-23T22:17:04.359Z,39.60
2022-08-23T22:19:32.395Z,39.73
2022-08-23T22:22:01.070Z,39.79
2022-08-23T22:24:29.117Z,39.48
2022-08-23T22:26:57.235Z,39.62
2022-08-23T22:29:25.383Z,39.65
2022-08-23T22:31:53.462Z,39.28
2022-08-23T22:34:23.033Z,38.94
2022-08-23T22:36:51.939Z,38.99
2022-08-23T22:39:21.795Z,39.04
2022-08-23T22:41:50.409Z,38.78
2022-08-23T22:44:18.553Z,38.98
2022-08-23T22:46:46.752Z,38.92
2022-08-23T22:49:14.874Z,38.65
2022-08-23T22:51:44.535Z,38.27
2022-08-23T22:54:14.341Z,38.65
2022-08-23T22:56:45.230Z,38.53
2022-08-23T22:59:14.450Z,38.01
2022-08-23T23:01:47.746Z,38.26
2022-08-23T23:04:17.515Z,38.39
2022-08-23T23:06:47.025Z,38.27
2022-08-23T23:09:15.205Z,38.10
2022-08-23T23:11:44.307Z,37.82
2022-08-23T23:14:13.234Z,38.20
2022-08-23T23:16:42.315Z,38.00
2022-08-23T23:19:28.273Z,38.05
2022-08-23T23:21:59.546Z,38.01
2022-08-23T23:24:29.860Z,38.16
2022-08-23T23:26:58.918Z,37.78
2022-08-23T23:29:27.176Z,38.01
2022-08-23T23:31:56.505Z,37.80
2022-08-23T23:34:25.088Z,37.40
2022-08-23T23:36:55.875Z,37.44
2022-08-23T23:39:25.962Z,37.81
2022-08-23T23:41:54.658Z,37.36
2022-08-23T23:44:30.774Z,37.93
2022-08-23T23:47:00.779Z,37.77
2022-08-23T23:49:33.057Z,37.82
2022-08-23T23:52:02.968Z,38.08
2022-08-23T23:54:33.806Z,38.36
2022-08-23T23:57:02.163Z,38.22
2022-08-23T23:59:30.377Z,38.18
